sensor_id;sensor_type;location;lat;lon;timestamp;P1;durP1;ratioP1;P2;durP2;ratioP2
40176;SDS011;31511;46.176;9.874;2023-01-04T00:02:06;33.70;;;26.90;;
40176;SDS011;31511;46.176;9.874;2023-01-04T00:04:33;42.00;;;29.05;;
40176;SDS011;31511;46.176;9.874;2023-01-04T00:07:00;46.10;;;34.22;;
40176;SDS011;31511;46.176;9.874;2023-01-04T00:09:27;42.20;;;31.27;;
40176;SDS011;31511;46.176;9.874;2023-01-04T00:11:55;48.13;;;34.13;;
40176;SDS011;31511;46.176;9.874;2023-01-04T00:14:22;42.80;;;31.23;;
40176;SDS011;31511;46.176;9.874;2023-01-04T00:16:50;40.13;;;29.35;;
40176;SDS011;31511;46.176;9.874;2023-01-04T00:19:16;43.08;;;32.50;;
40176;SDS011;31511;46.176;9.874;2023-01-04T00:21:42;39.38;;;29.67;;
40176;SDS011;31511;46.176;9.874;2023-01-04T00:24:09;37.90;;;27.55;;
40176;SDS011;31511;46.176;9.874;2023-01-04T00:26:39;39.33;;;28.63;;
40176;SDS011;31511;46.176;9.874;2023-01-04T00:29:06;39.20;;;29.23;;
40176;SDS011;31511;46.176;9.874;2023-01-04T00:31:37;38.90;;;28.27;;
40176;SDS011;31511;46.176;9.874;2023-01-04T00:34:03;38.08;;;29.33;;
40176;SDS011;31511;46.176;9.874;2023-01-04T00:36:31;37.35;;;28.40;;
40176;SDS011;31511;46.176;9.874;2023-01-04T00:38:57;40.72;;;28.88;;
40176;SDS011;31511;46.176;9.874;2023-01-04T00:41:40;40.17;;;29.70;;
40176;SDS011;31511;46.176;9.874;2023-01-04T00:44:06;41.75;;;28.35;;
40176;SDS011;31511;46.176;9.874;2023-01-04T00:46:33;36.90;;;28.48;;
40176;SDS011;31511;46.176;9.874;2023-01-04T00:49:00;36.72;;;27.27;;
40176;SDS011;31511;46.176;9.874;2023-01-04T00:51:33;43.13;;;30.77;;
40176;SDS011;31511;46.176;9.874;2023-01-04T00:54:00;39.35;;;26.33;;
40176;SDS011;31511;46.176;9.874;2023-01-04T00:56:28;39.35;;;28.02;;
40176;SDS011;31511;46.176;9.874;2023-01-04T00:58:56;36.83;;;27.85;;
40176;SDS011;31511;46.176;9.874;2023-01-04T01:01:24;38.95;;;27.13;;
40176;SDS011;31511;46.176;9.874;2023-01-04T01:03:53;36.95;;;26.67;;
40176;SDS011;31511;46.176;9.874;2023-01-04T01:06:20;35.90;;;26.98;;
40176;SDS011;31511;46.176;9.874;2023-01-04T01:08:49;31.40;;;24.15;;
40176;SDS011;31511;46.176;9.874;2023-01-04T01:11:16;36.20;;;25.13;;
40176;SDS011;31511;46.176;9.874;2023-01-04T01:13:42;31.83;;;24.33;;
40176;SDS011;31511;46.176;9.874;2023-01-04T01:16:09;34.58;;;24.48;;
40176;SDS011;31511;46.176;9.874;2023-01-04T01:18:40;33.40;;;24.20;;
40176;SDS011;31511;46.176;9.874;2023-01-04T01:21:12;34.30;;;25.20;;
40176;SDS011;31511;46.176;9.874;2023-01-04T01:23:39;35.00;;;27.42;;
40176;SDS011;31511;46.176;9.874;2023-01-04T01:26:06;32.05;;;24.60;;
40176;SDS011;31511;46.176;9.874;2023-01-04T01:28:33;35.58;;;25.60;;
40176;SDS011;31511;46.176;9.874;2023-01-04T01:31:10;35.67;;;25.17;;
40176;SDS011;31511;46.176;9.874;2023-01-04T01:33:38;37.53;;;24.63;;
40176;SDS011;31511;46.176;9.874;2023-01-04T01:36:05;30.95;;;23.48;;
40176;SDS011;31511;46.176;9.874;2023-01-04T01:38:31;31.75;;;23.45;;
40176;SDS011;31511;46.176;9.874;2023-01-04T01:40:57;32.42;;;25.38;;
40176;SDS011;31511;46.176;9.874;2023-01-04T01:48:34;29.15;;;20.92;;
40176;SDS011;31511;46.176;9.874;2023-01-04T01:51:01;27.90;;;22.33;;
40176;SDS011;31511;46.176;9.874;2023-01-04T01:53:31;29.00;;;20.80;;
40176;SDS011;31511;46.176;9.874;2023-01-04T01:55:58;30.75;;;22.35;;
40176;SDS011;31511;46.176;9.874;2023-01-04T01:58:32;33.10;;;22.10;;
40176;SDS011;31511;46.176;9.874;2023-01-04T02:00:59;28.02;;;19.55;;
40176;SDS011;31511;46.176;9.874;2023-01-04T02:03:31;31.00;;;21.20;;
40176;SDS011;31511;46.176;9.874;2023-01-04T02:05:57;30.13;;;19.20;;
40176;SDS011;31511;46.176;9.874;2023-01-04T02:08:27;28.20;;;19.98;;
40176;SDS011;31511;46.176;9.874;2023-01-04T02:10:55;24.98;;;19.52;;
40176;SDS011;31511;46.176;9.874;2023-01-04T02:13:23;25.35;;;19.02;;
40176;SDS011;31511;46.176;9.874;2023-01-04T02:16:14;27.83;;;18.40;;
40176;SDS011;31511;46.176;9.874;2023-01-04T02:18:43;30.40;;;20.15;;
40176;SDS011;31511;46.176;9.874;2023-01-04T02:21:20;27.42;;;21.58;;
40176;SDS011;31511;46.176;9.874;2023-01-04T02:23:57;30.98;;;23.45;;
40176;SDS011;31511;46.176;9.874;2023-01-04T02:26:34;29.80;;;21.60;;
40176;SDS011;31511;46.176;9.874;2023-01-04T02:31:40;30.13;;;20.92;;
40176;SDS011;31511;46.176;9.874;2023-01-04T02:36:57;29.65;;;19.38;;
40176;SDS011;31511;46.176;9.874;2023-01-04T02:44:24;24.23;;;18.27;;
40176;SDS011;31511;46.176;9.874;2023-01-04T02:47:15;29.95;;;19.60;;
40176;SDS011;31511;46.176;9.874;2023-01-04T02:49:42;27.95;;;18.58;;
40176;SDS011;31511;46.176;9.874;2023-01-04T02:54:55;25.13;;;17.35;;
40176;SDS011;31511;46.176;9.874;2023-01-04T03:00:09;22.13;;;15.75;;
40176;SDS011;31511;46.176;9.874;2023-01-04T03:02:41;16.60;;;13.02;;
40176;SDS011;31511;46.176;9.874;2023-01-04T03:06:14;16.13;;;11.80;;
40176;SDS011;31511;46.176;9.874;2023-01-04T03:11:03;21.52;;;14.25;;
40176;SDS011;31511;46.176;9.874;2023-01-04T03:13:33;21.23;;;15.27;;
40176;SDS011;31511;46.176;9.874;2023-01-04T03:16:02;20.27;;;15.07;;
40176;SDS011;31511;46.176;9.874;2023-01-04T03:18:30;22.63;;;14.52;;
40176;SDS011;31511;46.176;9.874;2023-01-04T03:20:58;23.40;;;17.15;;
40176;SDS011;31511;46.176;9.874;2023-01-04T03:23:28;25.65;;;17.40;;
40176;SDS011;31511;46.176;9.874;2023-01-04T03:26:14;19.60;;;14.85;;
40176;SDS011;31511;46.176;9.874;2023-01-04T03:29:19;18.42;;;13.60;;
40176;SDS011;31511;46.176;9.874;2023-01-04T03:32:06;15.88;;;11.13;;
40176;SDS011;31511;46.176;9.874;2023-01-04T03:34:53;19.23;;;14.07;;
40176;SDS011;31511;46.176;9.874;2023-01-04T03:43:18;23.52;;;15.60;;
40176;SDS011;31511;46.176;9.874;2023-01-04T03:46:09;17.98;;;12.75;;
40176;SDS011;31511;46.176;9.874;2023-01-04T03:48:57;19.60;;;13.20;;
40176;SDS011;31511;46.176;9.874;2023-01-04T03:51:27;17.65;;;11.82;;
40176;SDS011;31511;46.176;9.874;2023-01-04T03:53:56;16.13;;;12.18;;
40176;SDS011;31511;46.176;9.874;2023-01-04T03:56:25;16.17;;;11.73;;
40176;SDS011;31511;46.176;9.874;2023-01-04T03:58:53;15.68;;;11.15;;
40176;SDS011;31511;46.176;9.874;2023-01-04T04:01:19;13.27;;;10.02;;
40176;SDS011;31511;46.176;9.874;2023-01-04T04:03:46;17.60;;;11.07;;
40176;SDS011;31511;46.176;9.874;2023-01-04T04:09:15;18.88;;;12.80;;
40176;SDS011;31511;46.176;9.874;2023-01-04T04:11:42;17.38;;;13.65;;
40176;SDS011;31511;46.176;9.874;2023-01-04T04:14:08;15.85;;;12.63;;
40176;SDS011;31511;46.176;9.874;2023-01-04T04:16:35;19.70;;;15.00;;
40176;SDS011;31511;46.176;9.874;2023-01-04T04:19:01;23.40;;;17.77;;
40176;SDS011;31511;46.176;9.874;2023-01-04T04:21:28;19.13;;;13.05;;
40176;SDS011;31511;46.176;9.874;2023-01-04T04:23:56;15.98;;;10.85;;
40176;SDS011;31511;46.176;9.874;2023-01-04T04:26:24;17.33;;;10.65;;
40176;SDS011;31511;46.176;9.874;2023-01-04T04:28:52;13.50;;;9.45;;
40176;SDS011;31511;46.176;9.874;2023-01-04T04:31:18;12.85;;;8.25;;
40176;SDS011;31511;46.176;9.874;2023-01-04T04:33:44;12.55;;;8.57;;
40176;SDS011;31511;46.176;9.874;2023-01-04T04:36:12;8.88;;;7.03;;
40176;SDS011;31511;46.176;9.874;2023-01-04T04:38:41;9.90;;;6.95;;
40176;SDS011;31511;46.176;9.874;2023-01-04T04:41:08;9.30;;;5.85;;
40176;SDS011;31511;46.176;9.874;2023-01-04T04:43:54;12.02;;;7.97;;
40176;SDS011;31511;46.176;9.874;2023-01-04T04:46:21;18.73;;;13.80;;
40176;SDS011;31511;46.176;9.874;2023-01-04T04:48:49;21.33;;;14.27;;
40176;SDS011;31511;46.176;9.874;2023-01-04T04:51:15;18.15;;;14.38;;
40176;SDS011;31511;46.176;9.874;2023-01-04T04:53:41;21.67;;;14.35;;
40176;SDS011;31511;46.176;9.874;2023-01-04T04:56:08;19.60;;;12.50;;
40176;SDS011;31511;46.176;9.874;2023-01-04T04:58:35;12.13;;;8.45;;
40176;SDS011;31511;46.176;9.874;2023-01-04T05:01:02;13.55;;;8.50;;
40176;SDS011;31511;46.176;9.874;2023-01-04T05:03:30;10.77;;;7.35;;
40176;SDS011;31511;46.176;9.874;2023-01-04T05:05:56;11.73;;;7.72;;
40176;SDS011;31511;46.176;9.874;2023-01-04T05:08:23;13.50;;;9.00;;
40176;SDS011;31511;46.176;9.874;2023-01-04T05:10:51;15.38;;;8.02;;
40176;SDS011;31511;46.176;9.874;2023-01-04T05:13:17;11.77;;;7.55;;
40176;SDS011;31511;46.176;9.874;2023-01-04T05:15:44;10.98;;;7.78;;
40176;SDS011;31511;46.176;9.874;2023-01-04T05:18:12;13.13;;;7.47;;
40176;SDS011;31511;46.176;9.874;2023-01-04T05:20:39;8.93;;;6.72;;
40176;SDS011;31511;46.176;9.874;2023-01-04T05:23:05;10.90;;;7.28;;
40176;SDS011;31511;46.176;9.874;2023-01-04T05:25:33;10.93;;;8.32;;
40176;SDS011;31511;46.176;9.874;2023-01-04T05:27:59;10.45;;;8.18;;
40176;SDS011;31511;46.176;9.874;2023-01-04T05:30:25;11.63;;;7.90;;
40176;SDS011;31511;46.176;9.874;2023-01-04T05:35:37;12.35;;;8.20;;
40176;SDS011;31511;46.176;9.874;2023-01-04T05:38:03;13.77;;;8.25;;
40176;SDS011;31511;46.176;9.874;2023-01-04T05:40:30;11.73;;;7.60;;
40176;SDS011;31511;46.176;9.874;2023-01-04T05:42:57;9.75;;;7.53;;
40176;SDS011;31511;46.176;9.874;2023-01-04T05:45:24;10.40;;;7.78;;
40176;SDS011;31511;46.176;9.874;2023-01-04T05:47:53;13.07;;;8.35;;
40176;SDS011;31511;46.176;9.874;2023-01-04T05:50:21;8.02;;;5.75;;
40176;SDS011;31511;46.176;9.874;2023-01-04T05:52:49;7.30;;;5.43;;
40176;SDS011;31511;46.176;9.874;2023-01-04T05:55:16;8.18;;;6.28;;
40176;SDS011;31511;46.176;9.874;2023-01-04T05:57:42;7.82;;;5.55;;
40176;SDS011;31511;46.176;9.874;2023-01-04T06:00:09;6.05;;;4.70;;
40176;SDS011;31511;46.176;9.874;2023-01-04T06:02:35;4.95;;;3.67;;
40176;SDS011;31511;46.176;9.874;2023-01-04T06:05:01;5.97;;;3.63;;
40176;SDS011;31511;46.176;9.874;2023-01-04T06:07:28;7.40;;;3.92;;
40176;SDS011;31511;46.176;9.874;2023-01-04T06:09:55;6.50;;;4.43;;
40176;SDS011;31511;46.176;9.874;2023-01-04T06:12:22;9.50;;;6.35;;
40176;SDS011;31511;46.176;9.874;2023-01-04T06:14:50;9.75;;;6.00;;
40176;SDS011;31511;46.176;9.874;2023-01-04T06:17:16;10.60;;;5.07;;
40176;SDS011;31511;46.176;9.874;2023-01-04T06:19:42;7.10;;;5.00;;
40176;SDS011;31511;46.176;9.874;2023-01-04T06:22:09;6.78;;;5.05;;
40176;SDS011;31511;46.176;9.874;2023-01-04T06:24:35;7.15;;;5.18;;
40176;SDS011;31511;46.176;9.874;2023-01-04T06:27:01;5.75;;;4.30;;
40176;SDS011;31511;46.176;9.874;2023-01-04T06:29:29;4.78;;;3.45;;
40176;SDS011;31511;46.176;9.874;2023-01-04T06:31:55;6.05;;;3.83;;
40176;SDS011;31511;46.176;9.874;2023-01-04T06:34:23;5.95;;;4.00;;
40176;SDS011;31511;46.176;9.874;2023-01-04T06:36:51;9.43;;;6.50;;
40176;SDS011;31511;46.176;9.874;2023-01-04T06:39:18;7.43;;;4.03;;
40176;SDS011;31511;46.176;9.874;2023-01-04T06:41:45;8.00;;;3.92;;
40176;SDS011;31511;46.176;9.874;2023-01-04T06:44:12;8.40;;;4.90;;
40176;SDS011;31511;46.176;9.874;2023-01-04T06:46:38;8.45;;;4.38;;
40176;SDS011;31511;46.176;9.874;2023-01-04T06:49:05;6.38;;;4.40;;
40176;SDS011;31511;46.176;9.874;2023-01-04T06:51:31;6.53;;;4.25;;
40176;SDS011;31511;46.176;9.874;2023-01-04T06:53:57;5.55;;;3.58;;
40176;SDS011;31511;46.176;9.874;2023-01-04T06:56:24;4.50;;;2.88;;
40176;SDS011;31511;46.176;9.874;2023-01-04T06:58:53;5.22;;;3.58;;
40176;SDS011;31511;46.176;9.874;2023-01-04T07:01:20;5.45;;;3.60;;
40176;SDS011;31511;46.176;9.874;2023-01-04T07:03:48;6.22;;;3.15;;
40176;SDS011;31511;46.176;9.874;2023-01-04T07:06:14;4.30;;;2.83;;
40176;SDS011;31511;46.176;9.874;2023-01-04T07:08:41;4.47;;;3.05;;
40176;SDS011;31511;46.176;9.874;2023-01-04T07:11:07;5.65;;;3.60;;
40176;SDS011;31511;46.176;9.874;2023-01-04T07:13:34;6.13;;;4.20;;
40176;SDS011;31511;46.176;9.874;2023-01-04T07:16:00;5.80;;;3.50;;
40176;SDS011;31511;46.176;9.874;2023-01-04T07:18:28;5.20;;;2.95;;
40176;SDS011;31511;46.176;9.874;2023-01-04T07:20:56;5.65;;;3.00;;
40176;SDS011;31511;46.176;9.874;2023-01-04T07:23:23;6.30;;;3.83;;
40176;SDS011;31511;46.176;9.874;2023-01-04T07:25:50;5.07;;;3.83;;
40176;SDS011;31511;46.176;9.874;2023-01-04T07:28:16;6.15;;;2.88;;
40176;SDS011;31511;46.176;9.874;2023-01-04T07:31:04;2.72;;;2.40;;
40176;SDS011;31511;46.176;9.874;2023-01-04T07:33:30;15.68;;;3.38;;
40176;SDS011;31511;46.176;9.874;2023-01-04T07:36:00;3.97;;;2.65;;
40176;SDS011;31511;46.176;9.874;2023-01-04T07:38:27;10.48;;;7.00;;
40176;SDS011;31511;46.176;9.874;2023-01-04T07:40:55;6.68;;;5.15;;
40176;SDS011;31511;46.176;9.874;2023-01-04T07:43:22;5.22;;;4.10;;
40176;SDS011;31511;46.176;9.874;2023-01-04T07:45:50;7.00;;;4.03;;
40176;SDS011;31511;46.176;9.874;2023-01-04T07:48:17;5.15;;;3.55;;
40176;SDS011;31511;46.176;9.874;2023-01-04T07:50:43;6.03;;;3.72;;
40176;SDS011;31511;46.176;9.874;2023-01-04T07:53:10;8.35;;;4.22;;
40176;SDS011;31511;46.176;9.874;2023-01-04T07:55:37;7.30;;;4.80;;
40176;SDS011;31511;46.176;9.874;2023-01-04T07:58:03;6.28;;;4.28;;
40176;SDS011;31511;46.176;9.874;2023-01-04T08:00:29;8.10;;;4.20;;
40176;SDS011;31511;46.176;9.874;2023-01-04T08:02:55;6.55;;;3.83;;
40176;SDS011;31511;46.176;9.874;2023-01-04T08:05:22;8.40;;;3.50;;
40176;SDS011;31511;46.176;9.874;2023-01-04T08:07:51;5.30;;;3.97;;
40176;SDS011;31511;46.176;9.874;2023-01-04T08:10:17;5.47;;;3.25;;
40176;SDS011;31511;46.176;9.874;2023-01-04T08:12:43;5.70;;;3.75;;
40176;SDS011;31511;46.176;9.874;2023-01-04T08:15:09;10.85;;;5.65;;
40176;SDS011;31511;46.176;9.874;2023-01-04T08:17:37;8.18;;;5.00;;
40176;SDS011;31511;46.176;9.874;2023-01-04T08:20:03;12.38;;;4.88;;
40176;SDS011;31511;46.176;9.874;2023-01-04T08:22:30;6.18;;;3.83;;
40176;SDS011;31511;46.176;9.874;2023-01-04T08:24:56;13.57;;;4.30;;
40176;SDS011;31511;46.176;9.874;2023-01-04T08:27:23;5.32;;;4.03;;
40176;SDS011;31511;46.176;9.874;2023-01-04T08:29:50;9.65;;;4.13;;
40176;SDS011;31511;46.176;9.874;2023-01-04T08:32:16;5.63;;;3.65;;
40176;SDS011;31511;46.176;9.874;2023-01-04T08:34:44;8.48;;;4.47;;
40176;SDS011;31511;46.176;9.874;2023-01-04T08:37:10;7.85;;;4.75;;
40176;SDS011;31511;46.176;9.874;2023-01-04T08:39:37;8.45;;;5.20;;
40176;SDS011;31511;46.176;9.874;2023-01-04T08:42:04;9.30;;;6.03;;
40176;SDS011;31511;46.176;9.874;2023-01-04T08:44:31;13.30;;;4.50;;
40176;SDS011;31511;46.176;9.874;2023-01-04T08:47:00;5.60;;;4.15;;
40176;SDS011;31511;46.176;9.874;2023-01-04T08:49:28;5.65;;;3.58;;
40176;SDS011;31511;46.176;9.874;2023-01-04T08:51:55;4.70;;;3.72;;
40176;SDS011;31511;46.176;9.874;2023-01-04T08:54:22;5.18;;;3.90;;
40176;SDS011;31511;46.176;9.874;2023-01-04T08:56:50;5.00;;;3.58;;
40176;SDS011;31511;46.176;9.874;2023-01-04T08:59:16;9.55;;;7.63;;
40176;SDS011;31511;46.176;9.874;2023-01-04T09:01:42;15.88;;;9.35;;
40176;SDS011;31511;46.176;9.874;2023-01-04T09:04:10;9.43;;;7.20;;
40176;SDS011;31511;46.176;9.874;2023-01-04T09:06:37;10.00;;;6.63;;
40176;SDS011;31511;46.176;9.874;2023-01-04T09:09:03;13.25;;;7.80;;
40176;SDS011;31511;46.176;9.874;2023-01-04T09:11:30;9.25;;;7.45;;
40176;SDS011;31511;46.176;9.874;2023-01-04T09:13:56;12.20;;;8.65;;
40176;SDS011;31511;46.176;9.874;2023-01-04T09:16:24;17.88;;;13.82;;
40176;SDS011;31511;46.176;9.874;2023-01-04T09:18:52;12.57;;;7.57;;
40176;SDS011;31511;46.176;9.874;2023-01-04T09:21:21;9.27;;;6.95;;
40176;SDS011;31511;46.176;9.874;2023-01-04T09:23:49;10.05;;;6.85;;
40176;SDS011;31511;46.176;9.874;2023-01-04T09:26:16;11.25;;;7.30;;
40176;SDS011;31511;46.176;9.874;2023-01-04T09:28:55;10.20;;;7.30;;
40176;SDS011;31511;46.176;9.874;2023-01-04T09:31:23;10.07;;;7.20;;
40176;SDS011;31511;46.176;9.874;2023-01-04T09:33:52;12.32;;;8.70;;
40176;SDS011;31511;46.176;9.874;2023-01-04T09:36:19;12.38;;;9.82;;
40176;SDS011;31511;46.176;9.874;2023-01-04T09:38:49;8.70;;;7.43;;
40176;SDS011;31511;46.176;9.874;2023-01-04T09:41:24;9.80;;;8.65;;
40176;SDS011;31511;46.176;9.874;2023-01-04T09:43:57;9.85;;;6.95;;
40176;SDS011;31511;46.176;9.874;2023-01-04T09:48:57;8.45;;;6.43;;
40176;SDS011;31511;46.176;9.874;2023-01-04T09:51:25;11.55;;;9.07;;
40176;SDS011;31511;46.176;9.874;2023-01-04T09:53:56;10.95;;;9.23;;
40176;SDS011;31511;46.176;9.874;2023-01-04T09:56:32;13.45;;;8.85;;
40176;SDS011;31511;46.176;9.874;2023-01-04T09:59:00;18.58;;;11.48;;
40176;SDS011;31511;46.176;9.874;2023-01-04T10:01:50;9.43;;;7.82;;
40176;SDS011;31511;46.176;9.874;2023-01-04T10:04:16;11.90;;;7.45;;
40176;SDS011;31511;46.176;9.874;2023-01-04T10:06:45;6.35;;;5.75;;
40176;SDS011;31511;46.176;9.874;2023-01-04T10:09:12;7.80;;;4.78;;
40176;SDS011;31511;46.176;9.874;2023-01-04T10:21:54;17.23;;;10.43;;
40176;SDS011;31511;46.176;9.874;2023-01-04T10:24:34;14.65;;;10.95;;
40176;SDS011;31511;46.176;9.874;2023-01-04T10:27:06;13.07;;;11.27;;
40176;SDS011;31511;46.176;9.874;2023-01-04T10:29:38;13.40;;;11.07;;
40176;SDS011;31511;46.176;9.874;2023-01-04T10:34:42;15.73;;;9.40;;
40176;SDS011;31511;46.176;9.874;2023-01-04T10:37:19;11.05;;;8.70;;
40176;SDS011;31511;46.176;9.874;2023-01-04T10:39:53;13.77;;;9.82;;
40176;SDS011;31511;46.176;9.874;2023-01-04T10:45:06;7.40;;;4.93;;
40176;SDS011;31511;46.176;9.874;2023-01-04T10:48:09;7.22;;;4.90;;
40176;SDS011;31511;46.176;9.874;2023-01-04T10:50:43;8.48;;;7.25;;
40176;SDS011;31511;46.176;9.874;2023-01-04T10:53:22;8.73;;;7.60;;
40176;SDS011;31511;46.176;9.874;2023-01-04T10:55:54;17.58;;;8.52;;
40176;SDS011;31511;46.176;9.874;2023-01-04T10:58:31;8.43;;;7.25;;
40176;SDS011;31511;46.176;9.874;2023-01-04T11:01:02;11.65;;;7.82;;
40176;SDS011;31511;46.176;9.874;2023-01-04T11:06:08;9.23;;;7.07;;
40176;SDS011;31511;46.176;9.874;2023-01-04T11:11:22;9.32;;;6.05;;
40176;SDS011;31511;46.176;9.874;2023-01-04T11:13:51;8.70;;;6.65;;
40176;SDS011;31511;46.176;9.874;2023-01-04T11:16:17;10.15;;;6.35;;
40176;SDS011;31511;46.176;9.874;2023-01-04T11:18:45;13.30;;;5.88;;
40176;SDS011;31511;46.176;9.874;2023-01-04T11:21:13;8.70;;;6.20;;
40176;SDS011;31511;46.176;9.874;2023-01-04T11:23:42;9.40;;;6.70;;
40176;SDS011;31511;46.176;9.874;2023-01-04T11:26:21;15.70;;;7.32;;
40176;SDS011;31511;46.176;9.874;2023-01-04T11:28:54;11.25;;;6.50;;
40176;SDS011;31511;46.176;9.874;2023-01-04T11:33:58;7.88;;;5.68;;
40176;SDS011;31511;46.176;9.874;2023-01-04T11:36:35;7.15;;;4.80;;
40176;SDS011;31511;46.176;9.874;2023-01-04T11:39:03;6.68;;;4.97;;
40176;SDS011;31511;46.176;9.874;2023-01-04T11:41:29;9.00;;;5.10;;
40176;SDS011;31511;46.176;9.874;2023-01-04T11:44:02;4.22;;;3.38;;
40176;SDS011;31511;46.176;9.874;2023-01-04T11:46:30;5.45;;;3.78;;
40176;SDS011;31511;46.176;9.874;2023-01-04T11:48:56;8.45;;;4.38;;
40176;SDS011;31511;46.176;9.874;2023-01-04T11:56:26;6.78;;;4.07;;
40176;SDS011;31511;46.176;9.874;2023-01-04T11:59:13;7.30;;;4.90;;
40176;SDS011;31511;46.176;9.874;2023-01-04T12:01:44;6.40;;;4.47;;
40176;SDS011;31511;46.176;9.874;2023-01-04T12:04:11;11.60;;;5.68;;
40176;SDS011;31511;46.176;9.874;2023-01-04T12:06:44;7.68;;;4.18;;
40176;SDS011;31511;46.176;9.874;2023-01-04T12:09:13;7.50;;;4.38;;
40176;SDS011;31511;46.176;9.874;2023-01-04T12:11:59;13.48;;;7.47;;
40176;SDS011;31511;46.176;9.874;2023-01-04T12:14:31;3.97;;;2.72;;
40176;SDS011;31511;46.176;9.874;2023-01-04T12:19:32;5.43;;;3.53;;
40176;SDS011;31511;46.176;9.874;2023-01-04T12:22:00;6.03;;;3.10;;
40176;SDS011;31511;46.176;9.874;2023-01-04T12:24:30;7.20;;;3.65;;
40176;SDS011;31511;46.176;9.874;2023-01-04T12:26:57;4.78;;;3.35;;
40176;SDS011;31511;46.176;9.874;2023-01-04T12:29:32;4.03;;;2.63;;
40176;SDS011;31511;46.176;9.874;2023-01-04T12:34:41;4.75;;;2.95;;
40176;SDS011;31511;46.176;9.874;2023-01-04T12:37:08;129.85;;;10.07;;
40176;SDS011;31511;46.176;9.874;2023-01-04T12:39:44;6.13;;;2.72;;
40176;SDS011;31511;46.176;9.874;2023-01-04T12:42:15;8.85;;;4.00;;
40176;SDS011;31511;46.176;9.874;2023-01-04T12:50:08;8.75;;;2.80;;
40176;SDS011;31511;46.176;9.874;2023-01-04T12:52:49;7.78;;;3.38;;
40176;SDS011;31511;46.176;9.874;2023-01-04T12:57:53;7.20;;;2.90;;
40176;SDS011;31511;46.176;9.874;2023-01-04T13:00:19;3.15;;;2.50;;
40176;SDS011;31511;46.176;9.874;2023-01-04T13:02:46;10.63;;;3.75;;
40176;SDS011;31511;46.176;9.874;2023-01-04T13:10:19;12.35;;;6.72;;
40176;SDS011;31511;46.176;9.874;2023-01-04T13:17:55;13.23;;;8.27;;
40176;SDS011;31511;46.176;9.874;2023-01-04T13:20:24;14.23;;;7.88;;
40176;SDS011;31511;46.176;9.874;2023-01-04T13:22:54;13.40;;;7.65;;
40176;SDS011;31511;46.176;9.874;2023-01-04T13:25:23;10.38;;;6.40;;
40176;SDS011;31511;46.176;9.874;2023-01-04T13:28:12;17.45;;;11.45;;
40176;SDS011;31511;46.176;9.874;2023-01-04T13:30:40;15.13;;;7.82;;
40176;SDS011;31511;46.176;9.874;2023-01-04T13:33:13;12.63;;;7.07;;
40176;SDS011;31511;46.176;9.874;2023-01-04T13:35:40;11.23;;;7.30;;
40176;SDS011;31511;46.176;9.874;2023-01-04T13:38:13;9.55;;;5.68;;
40176;SDS011;31511;46.176;9.874;2023-01-04T13:40:44;7.20;;;5.32;;
40176;SDS011;31511;46.176;9.874;2023-01-04T13:48:11;8.98;;;4.65;;
40176;SDS011;31511;46.176;9.874;2023-01-04T13:50:43;11.95;;;6.15;;
40176;SDS011;31511;46.176;9.874;2023-01-04T13:53:20;12.95;;;8.27;;
40176;SDS011;31511;46.176;9.874;2023-01-04T13:55:49;6.93;;;4.88;;
40176;SDS011;31511;46.176;9.874;2023-01-04T13:58:16;6.68;;;5.20;;
40176;SDS011;31511;46.176;9.874;2023-01-04T14:00:50;10.45;;;5.05;;
40176;SDS011;31511;46.176;9.874;2023-01-04T14:03:29;6.65;;;4.20;;
40176;SDS011;31511;46.176;9.874;2023-01-04T14:06:00;7.30;;;3.90;;
40176;SDS011;31511;46.176;9.874;2023-01-04T14:08:30;10.73;;;3.33;;
40176;SDS011;31511;46.176;9.874;2023-01-04T14:10:57;12.23;;;5.95;;
40176;SDS011;31511;46.176;9.874;2023-01-04T14:13:25;38.72;;;22.80;;
40176;SDS011;31511;46.176;9.874;2023-01-04T14:16:27;15.63;;;7.93;;
40176;SDS011;31511;46.176;9.874;2023-01-04T14:18:47;7.82;;;5.35;;
40176;SDS011;31511;46.176;9.874;2023-01-04T14:21:14;7.55;;;5.18;;
40176;SDS011;31511;46.176;9.874;2023-01-04T14:23:41;8.82;;;5.18;;
40176;SDS011;31511;46.176;9.874;2023-01-04T14:26:07;9.90;;;5.53;;
40176;SDS011;31511;46.176;9.874;2023-01-04T14:28:54;8.57;;;5.70;;
40176;SDS011;31511;46.176;9.874;2023-01-04T14:31:24;12.75;;;6.20;;
40176;SDS011;31511;46.176;9.874;2023-01-04T14:33:53;11.27;;;7.15;;
40176;SDS011;31511;46.176;9.874;2023-01-04T14:36:21;14.25;;;5.28;;
40176;SDS011;31511;46.176;9.874;2023-01-04T14:38:57;11.32;;;5.00;;
40176;SDS011;31511;46.176;9.874;2023-01-04T14:46:27;12.15;;;4.07;;
40176;SDS011;31511;46.176;9.874;2023-01-04T14:48:54;6.30;;;4.07;;
40176;SDS011;31511;46.176;9.874;2023-01-04T14:51:22;7.88;;;3.58;;
40176;SDS011;31511;46.176;9.874;2023-01-04T14:53:51;6.90;;;3.28;;
40176;SDS011;31511;46.176;9.874;2023-01-04T14:56:19;8.38;;;4.45;;
40176;SDS011;31511;46.176;9.874;2023-01-04T14:58:47;7.30;;;4.63;;
40176;SDS011;31511;46.176;9.874;2023-01-04T15:01:14;13.10;;;8.23;;
40176;SDS011;31511;46.176;9.874;2023-01-04T15:03:41;10.73;;;4.93;;
40176;SDS011;31511;46.176;9.874;2023-01-04T15:06:08;10.38;;;5.15;;
40176;SDS011;31511;46.176;9.874;2023-01-04T15:08:36;5.82;;;4.22;;
40176;SDS011;31511;46.176;9.874;2023-01-04T15:11:02;22.70;;;5.55;;
40176;SDS011;31511;46.176;9.874;2023-01-04T15:13:29;9.80;;;5.07;;
40176;SDS011;31511;46.176;9.874;2023-01-04T15:15:55;11.68;;;5.00;;
40176;SDS011;31511;46.176;9.874;2023-01-04T15:18:22;12.48;;;7.28;;
40176;SDS011;31511;46.176;9.874;2023-01-04T15:20:51;11.85;;;6.57;;
40176;SDS011;31511;46.176;9.874;2023-01-04T15:23:17;10.05;;;4.93;;
40176;SDS011;31511;46.176;9.874;2023-01-04T15:25:44;10.43;;;4.55;;
40176;SDS011;31511;46.176;9.874;2023-01-04T15:28:11;10.50;;;4.15;;
40176;SDS011;31511;46.176;9.874;2023-01-04T15:30:42;5.75;;;3.85;;
40176;SDS011;31511;46.176;9.874;2023-01-04T15:33:08;9.00;;;4.68;;
40176;SDS011;31511;46.176;9.874;2023-01-04T15:35:37;7.65;;;4.75;;
40176;SDS011;31511;46.176;9.874;2023-01-04T15:38:03;8.70;;;4.25;;
40176;SDS011;31511;46.176;9.874;2023-01-04T15:40:29;8.80;;;6.10;;
40176;SDS011;31511;46.176;9.874;2023-01-04T15:42:55;12.95;;;7.07;;
40176;SDS011;31511;46.176;9.874;2023-01-04T15:45:29;16.08;;;11.77;;
40176;SDS011;31511;46.176;9.874;2023-01-04T15:47:55;23.17;;;10.73;;
40176;SDS011;31511;46.176;9.874;2023-01-04T15:50:29;12.52;;;8.00;;
40176;SDS011;31511;46.176;9.874;2023-01-04T15:52:55;12.77;;;8.48;;
40176;SDS011;31511;46.176;9.874;2023-01-04T15:55:23;12.85;;;7.70;;
40176;SDS011;31511;46.176;9.874;2023-01-04T15:57:51;10.38;;;7.50;;
40176;SDS011;31511;46.176;9.874;2023-01-04T16:00:17;16.40;;;7.72;;
40176;SDS011;31511;46.176;9.874;2023-01-04T16:02:43;16.77;;;7.28;;
40176;SDS011;31511;46.176;9.874;2023-01-04T16:05:09;9.38;;;7.80;;
40176;SDS011;31511;46.176;9.874;2023-01-04T16:07:36;11.75;;;7.10;;
40176;SDS011;31511;46.176;9.874;2023-01-04T16:10:03;13.00;;;7.20;;
40176;SDS011;31511;46.176;9.874;2023-01-04T16:12:29;11.15;;;6.95;;
40176;SDS011;31511;46.176;9.874;2023-01-04T16:15:10;13.20;;;7.93;;
40176;SDS011;31511;46.176;9.874;2023-01-04T16:17:37;17.50;;;6.40;;
40176;SDS011;31511;46.176;9.874;2023-01-04T16:20:03;10.55;;;7.15;;
40176;SDS011;31511;46.176;9.874;2023-01-04T16:22:30;12.18;;;7.18;;
40176;SDS011;31511;46.176;9.874;2023-01-04T16:24:56;13.60;;;7.60;;
40176;SDS011;31511;46.176;9.874;2023-01-04T16:27:23;44.28;;;22.88;;
40176;SDS011;31511;46.176;9.874;2023-01-04T16:29:52;31.73;;;16.08;;